This is the latest recevied weather packets stored in our database for station/object KB1RMA-4. If no packets are shown the sender has not sent any weather packets the latest 10 day(s).
| Time | Temp. | Humidity | Pressure | Rain* | Wind** | Luminosity | Snow |
|---|---|---|---|---|---|---|---|
| 1787766103 | 26.11° C | 54% | 1017.5 hPa | 0 mm | - | 660 W/m² | - |
| 1787765799 | 26.11° C | 53% | 1017.7 hPa | 0 mm | - | 683 W/m² | - |
| 1787765495 | 26.11° C | 50% | 1017.7 hPa | 0 mm | - | 625 W/m² | - |
| 1787765195 | 26.67° C | 52% | 1017.5 hPa | 0 mm | - | 360 W/m² | - |
| 1787764889 | 26.11° C | 51% | 1017.8 hPa | 0 mm | - | 697 W/m² | - |
| 1787764585 | 26.11° C | 51% | 1017.7 hPa | 0 mm | - | 739 W/m² | - |
| 1787764285 | 25.56° C | 52% | 1017.8 hPa | 0 mm | - | 734 W/m² | - |
| 1787763981 | 26.11° C | 54% | 1017.8 hPa | 0 mm | - | 750 W/m² | - |
| 1787763677 | 25° C | 54% | 1017.6 hPa | 0 mm | - | 741 W/m² | - |
| 1787763372 | 25° C | 53% | 1017.7 hPa | 0 mm | - | 449 W/m² | - |
| 1787763072 | 25° C | 54% | 1017.6 hPa | 0 mm | - | 203 W/m² | - |
| 1787762771 | 25° C | 54% | 1017.8 hPa | 0 mm | - | 815 W/m² | - |
| 1787762466 | 25.56° C | 54% | 1017.7 hPa | 0 mm | - | 155 W/m² | - |
| 1787762162 | 25.56° C | 53% | 1017.8 hPa | 0 mm | - | 760 W/m² | - |
| 1787761858 | 25.56° C | 54% | 1017.5 hPa | 0 mm | - | 755 W/m² | - |
| 1787761553 | 25.56° C | 54% | 1017.7 hPa | 0 mm | - | 776 W/m² | - |
| 1787761248 | 26.11° C | 52% | 1017.8 hPa | 0 mm | - | 594 W/m² | - |
| 1787760947 | 25.56° C | 53% | 1017.7 hPa | 0 mm | - | 766 W/m² | - |
| 1787760645 | 25° C | 56% | 1017.7 hPa | 0 mm | - | 769 W/m² | - |
| 1787760344 | 25.56° C | 54% | 1017.8 hPa | 0 mm | - | 730 W/m² | - |
| 1787760039 | 26.11° C | 54% | 1017.8 hPa | 0 mm | - | 725 W/m² | - |
| 1787759738 | 25.56° C | 59% | 1017.5 hPa | 0 mm | - | 713 W/m² | - |
| 1787759433 | 25.56° C | 59% | 1017.5 hPa | 0 mm | - | 711 W/m² | - |
| 1787759128 | 25.56° C | 55% | 1017.7 hPa | 0 mm | - | 732 W/m² | - |
| 1787758827 | 26.11° C | 54% | 1018 hPa | 0 mm | - | 750 W/m² | - |
* Rain latest hour (hover to see other rain measurements)
** Current wind speed in m/s (hover to see current wind gust speed)